Chemical Pioneer — KAFO — position and weather

sailwx.info

Track history (hours):
 
Tides and Currents Weather Stations Pressure Air Temp Water Temp Dewpoint Dewpoint Depression Visibility Wind Speed Wind Dir Waves Ship Positions

Chemical Pioneer

Owner: US Shipping Corp, Edison, NJ. More information available from US FCC via Universal Licensing System and Coast Guard Vessel Documentation Center.

Last reported at 2015-Mar-06 12:31 UTC. Time now 2015-Mar-06 12:39 UTC.
Position N 39°59' W 075°06'.

Type: Tanker. MMSI: 366032000.

Date/timePositionNaut miles runAvg speedWind from/ knotsBaromVisibWave heightAir tempDewpointWater temp
2015-Mar-06 12:31N 39°59' W 075°06'0 0.0
2015-Mar-06 11:31N 39°59' W 075°06'0 0.0
2015-Mar-06 10:31N 39°59' W 075°06'0 0.0
2015-Mar-06 09:31N 39°59' W 075°06'0 0.0
2015-Mar-06 08:31N 39°59' W 075°06'0 0.0
2015-Mar-06 07:31N 39°59' W 075°06'0 0.0
2015-Mar-06 06:31N 39°59' W 075°06'0 0.0
2015-Mar-06 05:28N 39°59' W 075°06'0 0.0
2015-Mar-06 04:28N 39°59' W 075°06'0 0.0
2015-Mar-06 03:31N 39°59' W 075°06'0 0.0
2015-Mar-06 02:28N 39°59' W 075°06'0 0.0
2015-Mar-06 01:31N 39°59' W 075°06'0 0.0
2015-Mar-06 00:31N 39°59' W 075°06'0 0.0
2015-Mar-05 23:31N 39°59' W 075°06'0 0.0
2015-Mar-05 22:31N 39°59' W 075°06'0 0.0
2015-Mar-05 21:31N 39°59' W 075°06'0 0.0
2015-Mar-05 20:31N 39°59' W 075°06'0 0.0
2015-Mar-05 19:31N 39°59' W 075°06'0 0.0
2015-Mar-05 18:31N 39°59' W 075°06'0 0.0
2015-Mar-05 17:31N 39°59' W 075°06'0 0.0
2015-Mar-05 16:31N 39°59' W 075°06'0 0.0
2015-Mar-05 15:31N 39°59' W 075°06'0 0.0
2015-Mar-05 14:31N 39°59' W 075°06'0 0.0
2015-Mar-05 13:31N 39°59' W 075°06'0 0.0
2015-Mar-05 12:31N 39°59' W 075°06'0 0.0
2015-Mar-05 11:31N 39°59' W 075°06'0 0.0
2015-Mar-05 10:31N 39°59' W 075°06'0 0.0
2015-Mar-05 09:31N 39°59' W 075°06'0 0.0
2015-Mar-05 08:31N 39°59' W 075°06'0 0.0
2015-Mar-05 07:31N 39°59' W 075°06'1 0.7
2015-Mar-05 06:33N 39°58' W 075°07'5 4.6
2015-Mar-05 05:33N 39°54' W 075°08'6 6.5
2015-Mar-05 04:33N 39°51' W 075°16'8 7.8
2015-Mar-05 03:33N 39°48' W 075°25'1211.9
2015-Mar-05 02:33N 39°38' W 075°34'1514.6
2015-Mar-05 01:33N 39°24' W 075°30'1616.2
2015-Mar-05 00:33N 39°11' W 075°17'1615.7
2015-Mar-04 23:33N 38°58' W 075°07'5 5.2
2015-Mar-04 22:31N 38°52' W 075°07'0 0.0
2015-Mar-04 21:31N 38°52' W 075°07'0 0.2
2015-Mar-04 20:31N 38°52' W 075°07'0 0.1
2015-Mar-04 19:31N 38°52' W 075°07'0 0.0
2015-Mar-04 18:31N 38°52' W 075°07'0 0.0
2015-Mar-04 17:31N 38°52' W 075°07'0 0.0
2015-Mar-04 16:31N 38°52' W 075°07'  
2015-Mar-02 09:05N 39°19' W 073°48'35 3.9
2015-Mar-02 00:16N 39°47' W 073°21'47 7.0
2015-Mar-01 17:32N 40°27' W 073°52'1212.3
2015-Mar-01 16:33N 40°36' W 074°03'4 4.0
2015-Mar-01 15:32N 40°39' W 074°07'0 0.0
2015-Mar-01 14:32N 40°39' W 074°07'0 0.0
2015-Mar-01 13:20N 40°39' W 074°07'0 0.0
2015-Mar-01 12:26N 40°39' W 074°07'0 0.0
2015-Mar-01 11:32N 40°39' W 074°07'0 0.0
2015-Mar-01 10:32N 40°39' W 074°07'0 0.0
2015-Mar-01 09:20N 40°39' W 074°07'0 0.0
2015-Mar-01 08:32N 40°39' W 074°07'0 0.0
2015-Mar-01 07:32N 40°39' W 074°07'0 0.0
2015-Mar-01 06:26N 40°39' W 074°07'0 0.0
2015-Mar-01 05:26N 40°39' W 074°07'0 0.0
2015-Mar-01 03:20N 40°39' W 074°07'0 0.0
2015-Mar-01 02:14N 40°39' W 074°07'0 0.0
2015-Mar-01 00:32N 40°39' W 074°07'0 0.0
2015-Feb-28 22:26N 40°39' W 074°07'0 0.0
2015-Feb-28 21:23N 40°39' W 074°07'2 2.3
2015-Feb-28 20:33N 40°39' W 074°04'1 0.7
2015-Feb-28 19:33N 40°38' W 074°04'0 0.1
2015-Feb-28 18:27N 40°38' W 074°04'0 0.0
2015-Feb-28 17:27N 40°38' W 074°04'0 0.0
2015-Feb-28 16:33N 40°38' W 074°04'0 0.0
2015-Feb-28 15:33N 40°38' W 074°04'0 0.0
2015-Feb-28 14:33N 40°38' W 074°04'6 6.2
2015-Feb-28 13:33N 40°32' W 074°01'4 4.2
2015-Feb-28 12:34N 40°29' W 073°59'1211.4
2015-Feb-28 11:31N 40°29' W 074°14'6 5.9
2015-Feb-28 10:32N 40°35' W 074°12'2 0.1
2015-Feb-27 11:33N 40°37' W 074°12'5 5.1
2015-Feb-27 10:33N 40°39' W 074°06'0 0.1
2015-Feb-27 09:33N 40°39' W 074°06'0 0.0
2015-Feb-27 08:27N 40°39' W 074°06'0 0.0
2015-Feb-27 07:33N 40°39' W 074°06'0 0.0
2015-Feb-27 06:33N 40°39' W 074°06'0 0.0
2015-Feb-27 05:27N 40°39' W 074°06'0 0.0
2015-Feb-27 04:27N 40°39' W 074°06'0 0.0
2015-Feb-26 20:33N 40°39' W 074°06'0 0.0
2015-Feb-26 19:27N 40°39' W 074°06'0 0.0
2015-Feb-26 18:15N 40°39' W 074°06'0 0.0
2015-Feb-26 17:27N 40°39' W 074°06'0 0.0
2015-Feb-26 16:25N 40°39' W 074°06'0 0.0
2015-Feb-26 15:25N 40°39' W 074°06'0 0.0
2015-Feb-26 06:25N 40°39' W 074°06'0 0.0
2015-Feb-26 05:19N 40°39' W 074°06'0 0.0
2015-Feb-26 02:19N 40°39' W 074°06'0 0.0
2015-Feb-26 01:13N 40°39' W 074°06'0 0.2
2015-Feb-26 00:33N 40°39' W 074°06'2 2.0
2015-Feb-25 23:32N 40°37' W 074°04'0 0.1
2015-Feb-25 19:20N 40°38' W 074°04'0 0.0
2015-Feb-25 17:32N 40°38' W 074°04'4 3.5
2015-Feb-25 16:29N 40°34' W 074°02'21 9.3
2015-Feb-25 14:11N 40°17' W 073°46'910.1
2015-Feb-25 13:19N 40°08' W 073°45'1012.2
2015-Feb-25 12:29N 39°58' W 073°43'1112.1
2015-Feb-25 11:32N 39°47' W 073°41'1812.3
2015-Feb-25 10:05N 39°29' W 073°46'1811.9
2015-Feb-25 08:32N 39°11' W 073°52'  
Track history (hours):
 
Tides and Currents Weather Stations Pressure Air Temp Water Temp Dewpoint Dewpoint Depression Visibility Wind Speed Wind Dir Waves Ship Positions

Chemical Pioneer

Owner: US Shipping Corp, Edison, NJ. More information available from US FCC via Universal Licensing System and Coast Guard Vessel Documentation Center.

Last reported at 2015-Mar-06 12:31 UTC. Time now 2015-Mar-06 12:39 UTC.
Position N 39°59' W 075°06'.

Type: Tanker. MMSI: 366032000.

Date/timePositionNaut miles runAvg speedWind from/ knotsBaromVisibWave heightAir tempDewpointWater temp
2015-Mar-06 12:31N 39°59' W 075°06'0 0.0
2015-Mar-06 11:31N 39°59' W 075°06'0 0.0
2015-Mar-06 10:31N 39°59' W 075°06'0 0.0
2015-Mar-06 09:31N 39°59' W 075°06'0 0.0
2015-Mar-06 08:31N 39°59' W 075°06'0 0.0
2015-Mar-06 07:31N 39°59' W 075°06'0 0.0
2015-Mar-06 06:31N 39°59' W 075°06'0 0.0
2015-Mar-06 05:28N 39°59' W 075°06'0 0.0
2015-Mar-06 04:28N 39°59' W 075°06'0 0.0
2015-Mar-06 03:31N 39°59' W 075°06'0 0.0
2015-Mar-06 02:28N 39°59' W 075°06'0 0.0
2015-Mar-06 01:31N 39°59' W 075°06'0 0.0
2015-Mar-06 00:31N 39°59' W 075°06'0 0.0
2015-Mar-05 23:31N 39°59' W 075°06'0 0.0
2015-Mar-05 22:31N 39°59' W 075°06'0 0.0
2015-Mar-05 21:31N 39°59' W 075°06'0 0.0
2015-Mar-05 20:31N 39°59' W 075°06'0 0.0
2015-Mar-05 19:31N 39°59' W 075°06'0 0.0
2015-Mar-05 18:31N 39°59' W 075°06'0 0.0
2015-Mar-05 17:31N 39°59' W 075°06'0 0.0
2015-Mar-05 16:31N 39°59' W 075°06'0 0.0
2015-Mar-05 15:31N 39°59' W 075°06'0 0.0
2015-Mar-05 14:31N 39°59' W 075°06'0 0.0
2015-Mar-05 13:31N 39°59' W 075°06'0 0.0
2015-Mar-05 12:31N 39°59' W 075°06'0 0.0
2015-Mar-05 11:31N 39°59' W 075°06'0 0.0
2015-Mar-05 10:31N 39°59' W 075°06'0 0.0
2015-Mar-05 09:31N 39°59' W 075°06'0 0.0
2015-Mar-05 08:31N 39°59' W 075°06'0 0.0
2015-Mar-05 07:31N 39°59' W 075°06'1 0.7
2015-Mar-05 06:33N 39°58' W 075°07'5 4.6
2015-Mar-05 05:33N 39°54' W 075°08'6 6.5
2015-Mar-05 04:33N 39°51' W 075°16'8 7.8
2015-Mar-05 03:33N 39°48' W 075°25'1211.9
2015-Mar-05 02:33N 39°38' W 075°34'1514.6
2015-Mar-05 01:33N 39°24' W 075°30'1616.2
2015-Mar-05 00:33N 39°11' W 075°17'1615.7
2015-Mar-04 23:33N 38°58' W 075°07'5 5.2
2015-Mar-04 22:31N 38°52' W 075°07'0 0.0
2015-Mar-04 21:31N 38°52' W 075°07'0 0.2
2015-Mar-04 20:31N 38°52' W 075°07'0 0.1
2015-Mar-04 19:31N 38°52' W 075°07'0 0.0
2015-Mar-04 18:31N 38°52' W 075°07'0 0.0
2015-Mar-04 17:31N 38°52' W 075°07'0 0.0
2015-Mar-04 16:31N 38°52' W 075°07'  
2015-Mar-02 09:05N 39°19' W 073°48'35 3.9
2015-Mar-02 00:16N 39°47' W 073°21'47 7.0
2015-Mar-01 17:32N 40°27' W 073°52'1212.3
2015-Mar-01 16:33N 40°36' W 074°03'4 4.0
2015-Mar-01 15:32N 40°39' W 074°07'0 0.0
2015-Mar-01 14:32N 40°39' W 074°07'0 0.0
2015-Mar-01 13:20N 40°39' W 074°07'0 0.0
2015-Mar-01 12:26N 40°39' W 074°07'0 0.0
2015-Mar-01 11:32N 40°39' W 074°07'0 0.0
2015-Mar-01 10:32N 40°39' W 074°07'0 0.0
2015-Mar-01 09:20N 40°39' W 074°07'0 0.0
2015-Mar-01 08:32N 40°39' W 074°07'0 0.0
2015-Mar-01 07:32N 40°39' W 074°07'0 0.0
2015-Mar-01 06:26N 40°39' W 074°07'0 0.0
2015-Mar-01 05:26N 40°39' W 074°07'0 0.0
2015-Mar-01 03:20N 40°39' W 074°07'0 0.0
2015-Mar-01 02:14N 40°39' W 074°07'0 0.0
2015-Mar-01 00:32N 40°39' W 074°07'0 0.0
2015-Feb-28 22:26N 40°39' W 074°07'0 0.0
2015-Feb-28 21:23N 40°39' W 074°07'2 2.3
2015-Feb-28 20:33N 40°39' W 074°04'1 0.7
2015-Feb-28 19:33N 40°38' W 074°04'0 0.1
2015-Feb-28 18:27N 40°38' W 074°04'0 0.0
2015-Feb-28 17:27N 40°38' W 074°04'0 0.0
2015-Feb-28 16:33N 40°38' W 074°04'0 0.0
2015-Feb-28 15:33N 40°38' W 074°04'0 0.0
2015-Feb-28 14:33N 40°38' W 074°04'6 6.2
2015-Feb-28 13:33N 40°32' W 074°01'4 4.2
2015-Feb-28 12:34N 40°29' W 073°59'1211.4
2015-Feb-28 11:31N 40°29' W 074°14'6 5.9
2015-Feb-28 10:32N 40°35' W 074°12'2 0.1
2015-Feb-27 11:33N 40°37' W 074°12'5 5.1
2015-Feb-27 10:33N 40°39' W 074°06'0 0.1
2015-Feb-27 09:33N 40°39' W 074°06'0 0.0
2015-Feb-27 08:27N 40°39' W 074°06'0 0.0
2015-Feb-27 07:33N 40°39' W 074°06'0 0.0
2015-Feb-27 06:33N 40°39' W 074°06'0 0.0
2015-Feb-27 05:27N 40°39' W 074°06'0 0.0
2015-Feb-27 04:27N 40°39' W 074°06'0 0.0
2015-Feb-26 20:33N 40°39' W 074°06'0 0.0
2015-Feb-26 19:27N 40°39' W 074°06'0 0.0
2015-Feb-26 18:15N 40°39' W 074°06'0 0.0
2015-Feb-26 17:27N 40°39' W 074°06'0 0.0
2015-Feb-26 16:25N 40°39' W 074°06'0 0.0
2015-Feb-26 15:25N 40°39' W 074°06'0 0.0
2015-Feb-26 06:25N 40°39' W 074°06'0 0.0
2015-Feb-26 05:19N 40°39' W 074°06'0 0.0
2015-Feb-26 02:19N 40°39' W 074°06'0 0.0
2015-Feb-26 01:13N 40°39' W 074°06'0 0.2
2015-Feb-26 00:33N 40°39' W 074°06'2 2.0
2015-Feb-25 23:32N 40°37' W 074°04'0 0.1
2015-Feb-25 19:20N 40°38' W 074°04'0 0.0
2015-Feb-25 17:32N 40°38' W 074°04'4 3.5
2015-Feb-25 16:29N 40°34' W 074°02'21 9.3
2015-Feb-25 14:11N 40°17' W 073°46'910.1
2015-Feb-25 13:19N 40°08' W 073°45'1012.2
2015-Feb-25 12:29N 39°58' W 073°43'1112.1
2015-Feb-25 11:32N 39°47' W 073°41'1812.3
2015-Feb-25 10:05N 39°29' W 073°46'1811.9
2015-Feb-25 08:32N 39°11' W 073°52'  

Dump ship's entire track history